createdAt,value
2022-07-29T00:00:20.536Z,1.80
2022-07-29T00:02:47.910Z,2.20
2022-07-29T00:05:15.359Z,1.98
2022-07-29T00:07:42.722Z,2.28
2022-07-29T00:10:10.089Z,1.90
2022-07-29T00:12:37.569Z,2.05
2022-07-29T00:15:05.669Z,1.80
2022-07-29T00:17:34.922Z,1.77
2022-07-29T00:20:02.214Z,1.77
2022-07-29T00:22:29.550Z,1.98
2022-07-29T00:24:56.906Z,2.10
2022-07-29T00:27:24.335Z,2.03
2022-07-29T00:29:51.664Z,1.83
2022-07-29T00:32:18.913Z,2.38
2022-07-29T00:35:04.896Z,2.20
2022-07-29T00:37:32.244Z,2.20
2022-07-29T00:39:59.615Z,2.20
2022-07-29T00:42:26.951Z,2.75
2022-07-29T00:44:54.350Z,2.30
2022-07-29T00:47:21.671Z,2.83
2022-07-29T00:49:49.188Z,2.13
2022-07-29T00:52:17.103Z,2.22
2022-07-29T00:54:45.140Z,2.35
2022-07-29T00:57:13.644Z,2.00
2022-07-29T00:59:41.229Z,2.22
2022-07-29T01:02:08.667Z,1.80
2022-07-29T01:04:39.522Z,2.00
2022-07-29T01:07:07.890Z,1.90
2022-07-29T01:09:45.943Z,2.00
2022-07-29T01:12:26.506Z,2.03
2022-07-29T01:14:59.071Z,1.80
2022-07-29T01:17:41.411Z,2.53
2022-07-29T01:20:32.234Z,1.88
2022-07-29T01:23:11.487Z,2.20
2022-07-29T01:25:41.585Z,1.92
2022-07-29T01:28:49.321Z,2.00
2022-07-29T01:31:59.301Z,2.10
2022-07-29T01:34:53.947Z,2.10
2022-07-29T01:37:29.237Z,1.80
2022-07-29T01:39:59.933Z,1.95
2022-07-29T01:42:45.357Z,2.10
2022-07-29T01:45:27.408Z,1.98
2022-07-29T01:48:00.421Z,2.00
2022-07-29T01:50:41.398Z,2.08
2022-07-29T01:53:14.320Z,2.53
2022-07-29T01:55:45.235Z,2.30
2022-07-29T01:58:14.571Z,2.30
2022-07-29T02:00:43.783Z,2.45
2022-07-29T02:06:07.319Z,2.80
2022-07-29T02:08:36.678Z,3.07
2022-07-29T02:11:06.003Z,2.90
2022-07-29T02:13:36.655Z,2.70
2022-07-29T02:16:06.878Z,2.50
2022-07-29T02:18:36.844Z,3.00
2022-07-29T02:21:15.090Z,2.10
2022-07-29T02:23:50.807Z,2.27
2022-07-29T02:26:21.393Z,2.70
2022-07-29T02:28:50.956Z,2.57
2022-07-29T02:31:20.573Z,2.63
2022-07-29T02:33:48.975Z,2.47
2022-07-29T02:36:17.626Z,2.40
2022-07-29T02:38:52.433Z,2.40
2022-07-29T02:41:36.295Z,2.50
2022-07-29T02:44:10.152Z,2.40
2022-07-29T02:46:43.018Z,2.90
2022-07-29T02:49:14.209Z,2.83
2022-07-29T02:51:46.094Z,2.50
2022-07-29T02:54:23.053Z,2.77
2022-07-29T02:56:53.644Z,2.73
2022-07-29T02:59:25.751Z,2.63
2022-07-29T03:01:55.294Z,2.53
2022-07-29T03:04:25.800Z,2.70
2022-07-29T03:06:54.380Z,2.80
2022-07-29T03:09:24.064Z,3.10
2022-07-29T03:11:51.759Z,2.60
2022-07-29T03:14:21.204Z,2.60
2022-07-29T03:16:51.267Z,2.50
2022-07-29T03:19:21.122Z,2.50
2022-07-29T03:21:48.911Z,2.63
2022-07-29T03:24:30.464Z,2.73
2022-07-29T03:26:58.833Z,2.93
2022-07-29T03:29:33.213Z,2.50
2022-07-29T03:32:07.945Z,2.70
2022-07-29T03:34:38.002Z,2.90
2022-07-29T03:37:07.246Z,2.60
2022-07-29T03:39:41.851Z,2.80
2022-07-29T03:42:11.973Z,2.83
2022-07-29T03:44:41.767Z,2.50
2022-07-29T03:47:11.977Z,2.77
2022-07-29T03:49:41.243Z,2.87
2022-07-29T03:52:09.017Z,2.80
2022-07-29T03:54:36.487Z,2.80
2022-07-29T03:57:06.682Z,3.00
2022-07-29T03:59:37.463Z,2.40
2022-07-29T04:02:06.367Z,2.70
2022-07-29T04:04:35.542Z,2.80
2022-07-29T04:07:03.582Z,2.87
2022-07-29T04:09:31.027Z,2.70
2022-07-29T04:12:03.766Z,2.70
2022-07-29T04:14:36.912Z,3.00
2022-07-29T04:17:05.641Z,2.50
2022-07-29T04:19:33.410Z,2.90
2022-07-29T04:22:01.662Z,3.10
2022-07-29T04:24:29.376Z,2.93
2022-07-29T04:26:57.046Z,2.90
2022-07-29T04:29:24.343Z,2.70
2022-07-29T04:31:51.731Z,2.67
2022-07-29T04:34:19.671Z,2.60
2022-07-29T04:36:47.498Z,3.22
2022-07-29T04:39:19.285Z,2.97
2022-07-29T04:41:57.051Z,3.30
2022-07-29T04:44:28.417Z,3.90
2022-07-29T04:46:57.271Z,2.67
2022-07-29T04:49:25.448Z,2.75
2022-07-29T04:51:52.836Z,2.40
2022-07-29T04:54:20.205Z,2.67
2022-07-29T04:56:47.561Z,3.03
2022-07-29T04:59:15.120Z,2.65
2022-07-29T05:01:45.163Z,2.47
2022-07-29T05:04:12.617Z,2.97
2022-07-29T05:06:40.156Z,2.75
2022-07-29T05:09:07.406Z,2.50
2022-07-29T05:11:34.757Z,2.58
2022-07-29T05:14:02.064Z,2.63
2022-07-29T05:16:31.614Z,2.53
2022-07-29T05:18:58.953Z,2.40
2022-07-29T05:21:26.218Z,2.50
2022-07-29T05:23:53.488Z,2.80
2022-07-29T05:26:20.798Z,2.80
2022-07-29T05:28:48.141Z,3.00
2022-07-29T05:31:15.992Z,2.95
2022-07-29T05:33:46.175Z,2.40
2022-07-29T05:36:13.523Z,3.25
2022-07-29T05:38:40.916Z,2.53
2022-07-29T05:41:10.875Z,2.30
2022-07-29T05:43:38.145Z,3.10
2022-07-29T05:46:05.465Z,2.60
2022-07-29T05:48:33.301Z,2.72
2022-07-29T05:51:00.706Z,2.70
2022-07-29T05:53:28.322Z,2.30
2022-07-29T05:55:55.874Z,2.42
2022-07-29T05:58:23.232Z,2.40
2022-07-29T06:00:50.818Z,2.30
2022-07-29T06:03:18.216Z,2.58
2022-07-29T06:05:45.513Z,2.30
2022-07-29T06:08:12.838Z,2.17
2022-07-29T06:10:40.242Z,2.63
2022-07-29T06:13:07.634Z,2.50
2022-07-29T06:15:35.062Z,2.78
2022-07-29T06:18:02.614Z,2.42
2022-07-29T06:20:31.469Z,2.85
2022-07-29T06:22:59.271Z,2.38
2022-07-29T06:25:27.100Z,2.25
2022-07-29T06:27:54.535Z,2.63
2022-07-29T06:30:21.914Z,2.88
2022-07-29T06:32:50.337Z,2.97
2022-07-29T06:35:39.043Z,2.60
2022-07-29T06:38:05.226Z,2.20
2022-07-29T06:41:06.760Z,2.50
2022-07-29T06:43:50.302Z,2.67
2022-07-29T06:46:20.095Z,2.55
2022-07-29T06:48:50.908Z,2.20
2022-07-29T06:51:21.720Z,2.67
2022-07-29T06:53:59.610Z,2.15
2022-07-29T06:56:39.026Z,2.28
2022-07-29T06:59:11.329Z,2.45
2022-07-29T07:01:40.842Z,2.42
2022-07-29T07:04:09.723Z,2.53
2022-07-29T07:06:37.794Z,2.58
2022-07-29T07:09:05.425Z,3.17
2022-07-29T07:11:32.911Z,2.30
2022-07-29T07:14:03.528Z,2.30
2022-07-29T07:16:32.567Z,2.95
2022-07-29T07:19:00.617Z,2.97
2022-07-29T07:21:30.209Z,2.25
2022-07-29T07:23:58.997Z,2.30
2022-07-29T07:26:26.782Z,2.70
2022-07-29T07:28:56.064Z,2.53
2022-07-29T07:31:23.491Z,2.67
2022-07-29T07:33:50.908Z,2.47
2022-07-29T07:36:18.244Z,2.40
2022-07-29T07:38:45.644Z,2.70
2022-07-29T07:41:13.110Z,2.38
2022-07-29T07:43:40.523Z,2.70
2022-07-29T07:46:08.007Z,2.83
2022-07-29T07:48:37.061Z,2.40
2022-07-29T07:51:06.706Z,2.72
2022-07-29T07:53:35.542Z,2.50
2022-07-29T07:56:12.157Z,2.95
2022-07-29T07:58:45.490Z,2.40
2022-07-29T08:01:13.082Z,2.38
2022-07-29T08:03:40.497Z,2.55
2022-07-29T08:06:08.076Z,2.20
2022-07-29T08:08:35.370Z,2.55
2022-07-29T08:11:09.013Z,2.40
2022-07-29T08:13:38.619Z,2.40
2022-07-29T08:16:13.220Z,3.05
2022-07-29T08:18:41.914Z,2.50
2022-07-29T08:21:09.432Z,2.30
2022-07-29T08:23:46.161Z,2.42
2022-07-29T08:26:17.175Z,2.65
2022-07-29T08:28:46.964Z,2.78
2022-07-29T08:31:15.019Z,2.50
2022-07-29T08:33:43.134Z,3.08
2022-07-29T08:36:10.612Z,2.70
2022-07-29T08:38:38.008Z,3.42
2022-07-29T08:41:05.538Z,3.10
2022-07-29T08:43:33.243Z,2.53
2022-07-29T08:46:01.772Z,3.28
2022-07-29T08:48:29.133Z,2.53
2022-07-29T08:50:57.517Z,2.95
2022-07-29T08:53:28.935Z,2.40
2022-07-29T08:55:57.044Z,3.03
2022-07-29T08:58:25.990Z,3.20
2022-07-29T09:00:55.967Z,2.95
2022-07-29T09:03:31.412Z,2.63
2022-07-29T09:06:00.262Z,2.72
2022-07-29T09:08:28.135Z,2.75
2022-07-29T09:11:00.982Z,3.08
2022-07-29T09:13:31.339Z,2.80
2022-07-29T09:15:58.851Z,2.50
2022-07-29T09:18:36.918Z,2.58
2022-07-29T09:21:23.782Z,2.60
2022-07-29T09:24:11.837Z,2.72
2022-07-29T09:26:44.192Z,2.85
2022-07-29T09:29:13.719Z,2.35
2022-07-29T09:31:43.909Z,2.78
2022-07-29T09:34:12.254Z,2.83
2022-07-29T09:36:46.943Z,2.50
2022-07-29T09:39:15.451Z,2.33
2022-07-29T09:41:50.314Z,2.92
2022-07-29T09:44:17.756Z,2.63
2022-07-29T09:47:06.901Z,2.90
2022-07-29T09:49:54.533Z,2.97
2022-07-29T09:52:24.881Z,2.53
2022-07-29T09:54:52.583Z,2.17
2022-07-29T09:57:30.793Z,2.55
2022-07-29T10:00:02.533Z,2.45
2022-07-29T10:02:35.492Z,2.50
2022-07-29T10:05:05.036Z,2.78
2022-07-29T10:07:57.484Z,2.60
2022-07-29T10:10:26.480Z,2.50
2022-07-29T10:13:08.019Z,2.60
2022-07-29T10:15:41.856Z,2.75
2022-07-29T10:18:10.306Z,2.60
2022-07-29T10:20:38.645Z,2.58
2022-07-29T10:23:06.552Z,3.17
2022-07-29T10:25:34.262Z,2.95
2022-07-29T10:28:01.674Z,3.30
2022-07-29T10:30:29.078Z,3.40
2022-07-29T10:33:15.686Z,3.53
2022-07-29T10:36:03.943Z,2.88
2022-07-29T10:38:52.533Z,2.67
2022-07-29T10:41:46.739Z,2.70
2022-07-29T10:44:19.464Z,2.63
2022-07-29T10:46:51.651Z,2.83
2022-07-29T10:49:24.994Z,2.80
2022-07-29T10:52:10.372Z,2.20
2022-07-29T10:54:43.955Z,3.00
2022-07-29T10:57:53.139Z,3.30
2022-07-29T11:00:28.697Z,2.78
2022-07-29T11:02:59.416Z,2.95
2022-07-29T11:05:39.827Z,2.42
2022-07-29T11:08:20.065Z,2.88
2022-07-29T11:10:52.983Z,2.70
2022-07-29T11:13:54.634Z,2.67
2022-07-29T11:16:25.190Z,2.72
2022-07-29T11:19:13.532Z,2.70
2022-07-29T11:21:53.914Z,3.00
2022-07-29T11:24:32.943Z,2.70
2022-07-29T11:27:13.623Z,2.92
2022-07-29T11:35:38.479Z,3.90
2022-07-29T11:41:25.418Z,3.55
2022-07-29T11:43:58.337Z,3.33
2022-07-29T11:46:53.937Z,3.13
2022-07-29T11:49:32.102Z,3.50
2022-07-29T11:52:04.869Z,3.50
2022-07-29T11:54:38.764Z,3.83
2022-07-29T11:57:22.921Z,3.40
2022-07-29T12:00:09.932Z,3.35
2022-07-29T12:02:48.529Z,3.50
2022-07-29T12:05:35.892Z,3.97
2022-07-29T12:07:01.387Z,3.13
2022-07-29T12:07:03.694Z,3.78
2022-07-29T12:08:28.746Z,3.95
2022-07-29T12:10:56.104Z,3.88
2022-07-29T12:13:37.747Z,3.58
2022-07-29T12:16:05.998Z,4.15
2022-07-29T12:18:33.815Z,3.70
2022-07-29T12:21:06.155Z,3.92
2022-07-29T12:23:34.474Z,3.63
2022-07-29T12:26:07.493Z,3.30
2022-07-29T12:28:40.010Z,3.40
2022-07-29T12:31:15.121Z,3.40
2022-07-29T12:34:02.722Z,3.55
2022-07-29T12:36:30.480Z,3.80
2022-07-29T12:38:58.314Z,4.07
2022-07-29T12:41:25.813Z,3.63
2022-07-29T12:43:55.483Z,4.30
2022-07-29T12:46:23.521Z,3.85
2022-07-29T12:48:59.553Z,4.00
2022-07-29T12:51:38.849Z,3.83
2022-07-29T12:57:01.294Z,3.78
2022-07-29T12:59:29.271Z,3.78
2022-07-29T13:01:57.494Z,4.10
2022-07-29T13:04:31.570Z,3.55
2022-07-29T13:07:09.176Z,3.90
2022-07-29T13:09:47.217Z,3.53
2022-07-29T13:12:15.551Z,3.63
2022-07-29T13:14:48.226Z,3.42
2022-07-29T13:17:22.298Z,3.60
2022-07-29T13:19:51.730Z,3.58
2022-07-29T13:22:24.494Z,3.40
2022-07-29T13:24:53.310Z,3.70
2022-07-29T13:27:26.028Z,3.90
2022-07-29T13:29:57.601Z,3.70
2022-07-29T13:32:28.188Z,3.85
2022-07-29T13:34:57.851Z,3.30
2022-07-29T13:37:26.941Z,2.95
2022-07-29T13:39:55.355Z,3.10
2022-07-29T13:42:24.037Z,2.80
2022-07-29T13:44:52.628Z,2.80
2022-07-29T13:47:32.322Z,3.22
2022-07-29T13:50:06.297Z,2.92
2022-07-29T13:52:36.655Z,2.85
2022-07-29T13:55:05.577Z,2.97
2022-07-29T13:57:33.058Z,3.30
2022-07-29T14:00:00.483Z,3.00
2022-07-29T14:02:27.942Z,2.70
2022-07-29T14:04:55.958Z,3.08
2022-07-29T14:07:24.388Z,2.90
2022-07-29T14:09:51.984Z,2.95
2022-07-29T14:12:20.044Z,3.20
2022-07-29T14:14:47.727Z,2.92
2022-07-29T14:17:15.806Z,3.33
2022-07-29T14:19:44.008Z,3.28
2022-07-29T14:22:11.587Z,3.33
2022-07-29T14:24:39.466Z,3.00
2022-07-29T14:27:11.739Z,3.70
2022-07-29T14:29:39.171Z,3.67
2022-07-29T14:32:08.182Z,4.00
2022-07-29T14:34:39.246Z,3.60
2022-07-29T14:37:07.253Z,3.70
2022-07-29T14:39:42.565Z,3.40
2022-07-29T14:42:13.030Z,2.92
2022-07-29T14:44:42.364Z,3.10
2022-07-29T14:47:12.777Z,2.85
2022-07-29T14:49:40.101Z,3.85
2022-07-29T14:52:07.696Z,3.60
2022-07-29T14:54:35.103Z,2.88
2022-07-29T14:57:03.052Z,2.63
2022-07-29T14:59:31.259Z,2.83
2022-07-29T15:01:59.213Z,2.85
2022-07-29T15:04:29.092Z,2.88
2022-07-29T15:06:56.639Z,3.60
2022-07-29T15:09:26.467Z,2.83
2022-07-29T15:11:53.999Z,3.30
2022-07-29T15:14:21.440Z,3.58
2022-07-29T15:16:49.233Z,3.90
2022-07-29T15:19:18.224Z,4.00
2022-07-29T15:21:49.247Z,4.15
2022-07-29T15:24:20.321Z,3.90
2022-07-29T15:26:51.477Z,3.75
2022-07-29T15:29:19.392Z,3.83
2022-07-29T15:31:47.167Z,4.20
2022-07-29T15:34:15.031Z,3.95
2022-07-29T15:36:52.118Z,3.42
2022-07-29T15:39:21.780Z,2.67
2022-07-29T15:41:49.565Z,3.00
2022-07-29T15:44:17.026Z,2.95
2022-07-29T15:47:03.051Z,3.20
2022-07-29T15:49:47.038Z,3.45
2022-07-29T15:52:25.886Z,3.25
2022-07-29T15:54:57.861Z,2.90
2022-07-29T15:57:25.862Z,3.42
2022-07-29T15:59:53.523Z,3.50
2022-07-29T16:02:21.472Z,3.53
2022-07-29T16:04:48.899Z,3.38
2022-07-29T16:07:16.704Z,3.28
2022-07-29T16:09:49.387Z,3.60
2022-07-29T16:12:20.137Z,3.55
2022-07-29T16:14:50.519Z,3.13
2022-07-29T16:17:18.440Z,3.67
2022-07-29T16:19:45.880Z,3.75
2022-07-29T16:22:13.853Z,3.50
2022-07-29T16:24:41.695Z,3.97
2022-07-29T16:27:09.253Z,4.00
2022-07-29T16:29:37.401Z,3.63
2022-07-29T16:32:06.585Z,3.33
2022-07-29T16:34:34.349Z,3.67
2022-07-29T16:37:02.182Z,4.10
2022-07-29T16:39:29.662Z,3.85
2022-07-29T16:42:00.814Z,4.00
2022-07-29T16:44:29.804Z,4.50
2022-07-29T16:46:58.976Z,3.95
2022-07-29T16:49:27.600Z,4.75
2022-07-29T16:51:55.049Z,3.63
2022-07-29T16:54:22.555Z,4.22
2022-07-29T16:56:50.053Z,4.35
2022-07-29T16:59:17.447Z,4.70
2022-07-29T17:01:44.890Z,4.47
2022-07-29T17:04:15.180Z,4.43
2022-07-29T17:06:42.726Z,4.60
2022-07-29T17:09:11.857Z,4.50
2022-07-29T17:11:53.960Z,4.05
2022-07-29T17:14:27.117Z,4.32
2022-07-29T17:17:01.338Z,4.20
2022-07-29T17:19:35.182Z,4.47
2022-07-29T17:22:18.656Z,3.95
2022-07-29T17:24:48.061Z,3.72
2022-07-29T17:27:16.272Z,3.97
2022-07-29T17:29:44.132Z,4.20
2022-07-29T17:32:15.750Z,4.20
2022-07-29T17:34:46.210Z,4.28
2022-07-29T17:37:13.894Z,4.38
2022-07-29T17:39:45.437Z,4.28
2022-07-29T17:42:14.750Z,4.60
2022-07-29T17:44:45.060Z,4.72
2022-07-29T17:47:16.377Z,4.70
2022-07-29T17:49:45.329Z,4.68
2022-07-29T17:52:14.219Z,5.10
2022-07-29T17:55:26.448Z,5.07
2022-07-29T18:01:59.610Z,4.63
2022-07-29T18:19:46.999Z,5.55
2022-07-29T19:15:28.290Z,5.03
2022-07-29T19:22:31.094Z,5.10
2022-07-29T19:24:58.403Z,5.03
2022-07-29T19:27:26.017Z,5.00
2022-07-29T19:29:55.816Z,4.47
2022-07-29T19:32:27.031Z,4.82
2022-07-29T19:35:13.172Z,4.50
2022-07-29T19:37:40.455Z,4.20
2022-07-29T19:40:08.182Z,4.07
2022-07-29T19:42:35.537Z,4.43
2022-07-29T19:45:03.090Z,4.28
2022-07-29T19:47:30.370Z,4.07
2022-07-29T19:49:57.687Z,4.05
2022-07-29T19:52:24.989Z,4.00
2022-07-29T19:54:53.029Z,3.70
2022-07-29T19:57:20.283Z,3.88
2022-07-29T19:59:47.744Z,4.00
2022-07-29T20:02:18.079Z,3.63
2022-07-29T20:04:45.495Z,3.92
2022-07-29T20:07:13.527Z,4.15
2022-07-29T20:09:41.508Z,4.20
2022-07-29T20:12:10.011Z,3.60
2022-07-29T20:14:38.028Z,4.00
2022-07-29T20:17:05.646Z,3.30
2022-07-29T20:19:33.515Z,4.28
2022-07-29T20:22:01.232Z,3.28
2022-07-29T20:24:28.851Z,3.60
2022-07-29T20:26:56.216Z,3.25
2022-07-29T20:29:26.706Z,4.57
2022-07-29T20:31:56.492Z,2.92
2022-07-29T20:34:24.241Z,3.45
2022-07-29T20:36:51.624Z,3.38
2022-07-29T20:39:21.064Z,3.75
2022-07-29T20:41:48.959Z,3.70
2022-07-29T20:44:18.798Z,3.05
2022-07-29T20:46:46.335Z,3.17
2022-07-29T20:49:13.696Z,3.25
2022-07-29T20:51:44.003Z,3.45
2022-07-29T20:54:12.157Z,3.03
2022-07-29T20:56:39.827Z,2.80
2022-07-29T20:59:10.656Z,3.38
2022-07-29T21:01:38.059Z,3.58
2022-07-29T21:04:05.639Z,3.17
2022-07-29T21:06:34.625Z,2.88
2022-07-29T21:09:02.126Z,3.08
2022-07-29T21:11:44.590Z,3.17
2022-07-29T21:14:23.137Z,3.40
2022-07-29T21:16:50.660Z,3.45
2022-07-29T21:19:17.991Z,3.13
2022-07-29T21:21:46.436Z,3.13
2022-07-29T21:24:16.241Z,3.55
2022-07-29T21:26:50.643Z,3.35
2022-07-29T21:29:26.908Z,3.08
2022-07-29T21:31:54.199Z,2.88
2022-07-29T21:34:23.066Z,2.80
2022-07-29T21:36:50.694Z,3.40
2022-07-29T21:39:18.335Z,3.05
2022-07-29T21:41:45.947Z,3.00
2022-07-29T21:44:13.614Z,2.65
2022-07-29T21:46:41.245Z,3.22
2022-07-29T21:49:08.960Z,3.15
2022-07-29T21:51:36.596Z,2.88
2022-07-29T21:54:04.522Z,2.78
2022-07-29T21:56:32.200Z,2.63
2022-07-29T21:59:00.244Z,3.15
2022-07-29T22:01:28.210Z,2.70
2022-07-29T22:04:06.610Z,2.90
2022-07-29T22:06:34.588Z,3.00
2022-07-29T22:09:02.403Z,2.70
2022-07-29T22:11:30.494Z,2.60
2022-07-29T22:13:58.124Z,2.65
2022-07-29T22:16:25.887Z,2.70
2022-07-29T22:18:56.530Z,2.67
2022-07-29T22:21:24.414Z,2.83
2022-07-29T22:23:52.090Z,2.70
2022-07-29T22:26:19.830Z,2.20
2022-07-29T22:28:47.455Z,2.70
2022-07-29T22:31:15.090Z,2.75
2022-07-29T22:33:42.757Z,2.72
2022-07-29T22:36:10.705Z,2.50
2022-07-29T22:38:38.517Z,2.70
2022-07-29T22:41:06.226Z,2.80
2022-07-29T22:43:33.871Z,2.92
2022-07-29T22:46:01.502Z,2.80
2022-07-29T22:48:29.283Z,2.80
2022-07-29T22:50:56.950Z,2.67
2022-07-29T22:53:24.615Z,2.60
2022-07-29T22:55:54.134Z,2.85
2022-07-29T22:58:21.749Z,2.83
2022-07-29T23:00:49.391Z,2.42
2022-07-29T23:03:17.105Z,3.08
2022-07-29T23:05:44.739Z,2.78
2022-07-29T23:08:12.421Z,2.90
2022-07-29T23:10:40.061Z,3.05
2022-07-29T23:13:07.697Z,3.00
2022-07-29T23:15:35.319Z,2.90
2022-07-29T23:18:02.954Z,3.03
2022-07-29T23:20:30.724Z,2.80
2022-07-29T23:22:58.355Z,3.15
2022-07-29T23:25:25.961Z,2.80
2022-07-29T23:27:56.716Z,2.50
2022-07-29T23:30:24.709Z,2.88
2022-07-29T23:32:52.364Z,3.08
2022-07-29T23:35:20.261Z,2.72
2022-07-29T23:37:48.459Z,3.05
2022-07-29T23:40:16.280Z,3.08
2022-07-29T23:42:44.524Z,3.13
2022-07-29T23:45:13.230Z,3.05
2022-07-29T23:47:41.503Z,3.03
2022-07-29T23:50:15.253Z,3.60
2022-07-29T23:52:44.020Z,2.92
2022-07-29T23:55:36.935Z,3.55
2022-07-29T23:58:00.965Z,2.65
